Time;durP1;ratioP1;P1;durP2;ratioP2;P2;SDS_P1;SDS_P2;PMS_P1;PMS_P2;Temp;Humidity;BMP_temperature;BMP_pressure;BME280_temperature;BME280_humidity;BME280_pressure;Samples;Min_cycle;Max_cycle;Signal;HPM_P1;HPM_P2
2021/07/29 00:00:12;;;;;;;;;;;16.40;99.90;;;15.08;91.67;100750.75;3509383;39;102710;-39
2021/07/29 00:02:39;;;;;;;;;;;16.40;99.90;;;15.05;91.86;100740.25;3508646;40;102227;-39
2021/07/29 00:05:07;;;;;;;;;;;16.40;99.90;;;15.07;91.24;100746.34;3509236;39;103137;-39
2021/07/29 00:07:34;;;;;;;;;;;16.40;99.90;;;15.02;92.01;100732.50;3509058;39;102178;-39
2021/07/29 00:10:03;;;;;;;;;;;16.30;99.90;;;14.95;92.50;100725.22;3508924;39;102126;-39
2021/07/29 00:12:31;;;;;;;;;;;16.30;99.90;;;14.96;92.52;100726.06;3509122;40;102422;-39
2021/07/29 00:14:58;;;;;;;;;;;16.20;99.90;;;14.93;93.14;100738.38;3508989;39;103022;-39
2021/07/29 00:20:41;;;;;;;;;;;16.20;99.90;;;14.88;93.43;100719.06;3508817;39;103130;-39
2021/07/29 00:23:09;;;;;;;;;;;16.20;99.90;;;14.89;93.67;100714.41;3508653;39;102498;-39
2021/07/29 00:25:36;;;;;;;;;;;16.20;99.90;;;14.92;93.27;100700.19;3508750;39;102404;-39
2021/07/29 00:28:07;;;;;;;;;;;16.20;99.90;;;14.87;93.30;100700.91;3509525;39;102245;-39
2021/07/29 00:30:34;;;;;;;;;;;16.20;99.90;;;14.90;93.17;100710.56;3508747;40;103090;-39
2021/07/29 00:33:01;;;;;;;;;;;16.20;99.90;;;14.86;93.64;100703.91;3509482;39;102549;-39
2021/07/29 00:35:29;;;;;;;;;;;16.20;99.90;;;14.87;94.15;100713.81;3499274;40;102351;-39
2021/07/29 00:38:01;;;;;;;;;;;16.20;99.90;;;14.85;93.96;100719.53;3508455;40;102314;-39
2021/07/29 00:40:29;;;;;;;;;;;16.10;99.90;;;14.95;93.71;100740.88;3509061;39;102207;-39
2021/07/29 00:42:56;;;;;;;;;;;16.20;99.90;;;14.94;93.01;100740.03;3508465;40;102793;-39
2021/07/29 00:45:24;;;;;;;;;;;16.20;99.90;;;14.90;93.01;100721.56;3508484;40;103070;-39
2021/07/29 00:47:52;;;;;;;;;;;16.20;99.90;;;14.89;92.15;100722.66;3508605;39;102794;-39
2021/07/29 00:50:34;;;;;;;;;;;16.20;99.90;;;14.94;91.52;100728.22;3507701;40;102136;-39
2021/07/29 00:53:03;;;;;;;;;;;16.20;99.90;;;14.92;91.80;100725.72;3508220;40;102269;-39
2021/07/29 00:55:30;;;;;;;;;;;16.20;99.90;;;14.90;91.34;100725.13;3508325;39;103152;-39
2021/07/29 00:57:58;;;;;;;;;;;16.20;99.90;;;14.88;92.23;100713.56;3508188;39;102338;-39
2021/07/29 01:00:25;;;;;;;;;;;16.20;99.90;;;14.79;92.11;100710.34;3509064;39;102211;-38
2021/07/29 01:02:56;;;;;;;;;;;16.10;99.90;;;14.69;92.27;100704.63;3508681;39;102174;-39
2021/07/29 01:05:23;;;;;;;;;;;16.10;99.90;;;14.75;93.01;100709.19;3509109;39;102133;-39
2021/07/29 01:07:53;;;;;;;;;;;16.00;99.90;;;14.75;93.85;100708.34;3507970;39;102265;-39
2021/07/29 01:10:20;;;;;;;;;;;16.00;99.90;;;14.71;92.89;100705.25;3508907;39;103070;-39
2021/07/29 01:12:47;;;;;;;;;;;16.00;99.90;;;14.71;92.86;100709.91;3508299;39;102172;-39
2021/07/29 01:15:15;;;;;;;;;;;16.00;99.90;;;14.72;93.37;100704.19;3508901;39;103065;-39
2021/07/29 01:17:42;;;;;;;;;;;16.00;99.90;;;14.72;93.35;100703.31;3508126;39;102246;-39
2021/07/29 01:20:16;;;;;;;;;;;16.00;99.90;;;14.64;93.68;100688.06;3509206;39;102320;-39
2021/07/29 01:22:43;;;;;;;;;;;16.00;99.90;;;14.64;94.10;100701.78;3508912;39;102207;-39
2021/07/29 01:25:11;;;;;;;;;;;16.00;99.90;;;14.45;93.22;100679.97;3508557;39;102172;-39
2021/07/29 01:27:38;;;;;;;;;;;15.90;99.90;;;14.51;93.26;100695.47;3508160;39;102398;-39
2021/07/29 01:30:05;;;;;;;;;;;15.90;99.90;;;14.47;93.84;100691.56;3508820;39;102249;-40
2021/07/29 01:32:32;;;;;;;;;;;15.80;99.90;;;14.42;93.81;100687.84;3508755;39;102251;-39
2021/07/29 01:35:00;;;;;;;;;;;15.80;99.90;;;14.39;93.67;100689.19;3508522;39;102308;-39
2021/07/29 01:37:27;;;;;;;;;;;15.70;99.90;;;14.37;93.29;100686.66;3508425;39;102886;-39
2021/07/29 01:39:55;;;;;;;;;;;15.70;99.90;;;14.34;93.58;100684.41;3508316;40;102173;-39
2021/07/29 01:42:22;;;;;;;;;;;15.70;99.90;;;14.34;93.08;100687.16;3508616;39;102228;-39
2021/07/29 01:44:49;;;;;;;;;;;15.70;99.90;;;14.34;93.90;100687.16;3508146;39;103189;-39
2021/07/29 01:47:16;;;;;;;;;;;15.70;99.90;;;14.30;93.54;100690.63;3508711;39;103926;-39
2021/07/29 01:49:44;;;;;;;;;;;15.60;99.90;;;14.32;93.42;100688.47;3508127;39;102254;-39
2021/07/29 01:52:11;;;;;;;;;;;15.60;99.90;;;14.25;93.52;100677.63;3508569;39;102204;-39
2021/07/29 01:54:38;;;;;;;;;;;15.60;99.90;;;14.39;93.03;100680.97;3507599;39;103038;-39
2021/07/29 01:57:07;;;;;;;;;;;15.70;99.90;;;14.35;92.42;100677.84;3508046;39;102376;-39
2021/07/29 01:59:35;;;;;;;;;;;15.60;99.90;;;14.27;92.79;100682.88;3508208;39;102126;-41
2021/07/29 02:02:04;;;;;;;;;;;15.60;99.90;;;14.21;92.89;100688.25;3631723;22;104804;-40
2021/07/29 02:04:34;;;;;;;;;;;15.60;99.90;;;14.23;93.70;100686.09;3507408;39;102204;-40
2021/07/29 02:07:01;;;;;;;;;;;15.50;99.90;;;14.18;93.69;100687.88;3509668;40;102152;-40
2021/07/29 02:09:29;;;;;;;;;;;15.50;99.90;;;14.08;93.98;100678.34;3509162;40;102091;-40
2021/07/29 02:11:56;;;;;;;;;;;15.50;99.90;;;14.10;94.56;100683.63;3509083;40;102246;-40
2021/07/29 02:14:24;;;;;;;;;;;15.50;99.90;;;14.09;94.70;100692.94;3508953;39;102258;-40
2021/07/29 02:16:51;;;;;;;;;;;15.40;99.90;;;14.13;94.44;100682.28;3509463;39;102570;-40
2021/07/29 02:19:19;;;;;;;;;;;15.50;99.90;;;14.12;94.42;100684.22;3509679;39;103179;-40
2021/07/29 02:21:46;;;;;;;;;;;15.50;99.90;;;14.10;94.15;100684.44;3509797;39;102440;-40
2021/07/29 02:24:13;;;;;;;;;;;15.50;99.90;;;14.07;93.36;100687.66;3509563;39;103018;-40
2021/07/29 02:26:40;;;;;;;;;;;15.40;99.90;;;14.04;93.77;100684.56;3509346;40;102135;-41
2021/07/29 02:29:07;;;;;;;;;;;15.40;99.90;;;14.06;93.29;100687.91;3509002;40;103036;-40
2021/07/29 02:31:34;;;;;;;;;;;15.40;99.90;;;14.05;93.10;100687.06;3509755;39;102456;-40
2021/07/29 02:34:02;;;;;;;;;;;15.40;99.90;;;13.98;93.50;100688.25;3509267;39;103644;-42
2021/07/29 02:36:29;;;;;;;;;;;15.30;99.90;;;13.95;93.04;100686.84;3508952;40;102237;-40
2021/07/29 02:38:56;;;;;;;;;;;15.30;99.90;;;13.92;92.97;100696.38;3509684;39;102136;-40
2021/07/29 02:41:23;;;;;;;;;;;15.30;99.90;;;13.89;93.05;100701.50;3508562;40;102128;-41
2021/07/29 02:43:51;;;;;;;;;;;15.30;99.90;;;13.83;93.43;100697.81;3509700;39;103315;-40
2021/07/29 02:46:18;;;;;;;;;;;15.20;99.90;;;13.87;93.42;100707.22;3508940;40;102285;-42
2021/07/29 02:48:45;;;;;;;;;;;15.20;99.90;;;13.87;93.55;100695.41;3508975;40;103163;-40
2021/07/29 02:51:12;;;;;;;;;;;15.20;99.90;;;13.87;93.62;100699.00;3509637;39;102417;-40
2021/07/29 02:53:40;;;;;;;;;;;15.20;99.90;;;13.88;93.44;100697.94;3508750;40;103263;-41
2021/07/29 02:56:08;;;;;;;;;;;15.20;99.90;;;13.87;93.28;100699.00;3508782;40;102248;-41
2021/07/29 02:58:36;;;;;;;;;;;15.20;99.90;;;13.88;93.69;100703.41;3509843;39;102151;-40
2021/07/29 03:01:03;;;;;;;;;;;15.20;99.90;;;13.85;93.19;100694.81;3508962;39;102383;-41
2021/07/29 03:03:31;;;;;;;;;;;15.20;99.90;;;13.87;92.76;100695.41;3508759;40;103075;-41
2021/07/29 03:05:59;;;;;;;;;;;15.20;99.90;;;13.90;92.55;100697.66;3508911;40;102388;-40
2021/07/29 03:08:26;;;;;;;;;;;15.20;99.90;;;13.88;92.78;100695.19;3509011;40;103998;-41
2021/07/29 03:10:57;;;;;;;;;;;15.20;99.90;;;13.93;92.69;100697.22;3509269;39;102098;-40
2021/07/29 03:13:26;;;;;;;;;;;15.30;99.90;;;13.90;92.18;100682.06;3508184;40;103190;-41
2021/07/29 03:15:53;;;;;;;;;;;15.30;99.90;;;13.92;92.49;100687.28;3509165;40;102394;-40
2021/07/29 03:18:21;;;;;;;;;;;15.30;99.90;;;13.93;92.53;100703.53;3509476;39;102970;-40
2021/07/29 03:20:48;;;;;;;;;;;15.30;99.90;;;13.95;92.29;100693.16;3508714;40;102790;-41
2021/07/29 03:23:15;;;;;;;;;;;15.30;99.90;;;14.05;91.74;100694.44;3509081;39;102325;-41
2021/07/29 03:25:48;;;;;;;;;;;15.30;99.90;;;14.03;91.59;100702.09;3508328;40;102872;-40
2021/07/29 03:28:16;;;;;;;;;;;15.30;99.90;;;14.09;91.50;100696.50;3508694;40;104015;-40
2021/07/29 03:30:44;;;;;;;;;;;15.40;99.90;;;14.14;90.45;100694.94;3509178;40;102327;-40
2021/07/29 03:33:12;;;;;;;;;;;15.40;99.90;;;14.15;91.38;100694.69;3509251;39;102985;-40
2021/07/29 03:35:40;;;;;;;;;;;15.40;99.90;;;14.12;91.78;100705.31;3508563;40;102423;-41
2021/07/29 03:38:08;;;;;;;;;;;15.40;99.90;;;14.15;91.52;100702.09;3508863;40;103872;-40
2021/07/29 03:40:36;;;;;;;;;;;15.50;99.90;;;14.19;91.74;100701.38;3508460;40;102370;-41
2021/07/29 03:43:07;;;;;;;;;;;15.50;99.90;;;14.18;91.97;100704.34;3508455;40;104077;-41
2021/07/29 03:45:38;;;;;;;;;;;15.50;99.90;;;14.24;91.78;100706.97;3508461;40;102365;-41
2021/07/29 03:48:05;;;;;;;;;;;15.50;99.90;;;14.21;91.71;100710.19;3509053;40;102235;-40
2021/07/29 03:50:33;;;;;;;;;;;15.50;99.90;;;14.20;91.65;100705.78;3508498;40;102337;-40
2021/07/29 03:53:00;;;;;;;;;;;15.50;99.90;;;14.24;91.67;100711.66;3508910;40;102238;-40
2021/07/29 03:55:28;;;;;;;;;;;15.50;99.90;;;14.27;91.54;100704.81;3509389;39;102301;-42
2021/07/29 03:57:55;;;;;;;;;;;15.50;99.90;;;14.23;91.36;100707.22;3508339;40;102264;-40
2021/07/29 04:00:22;;;;;;;;;;;15.50;99.90;;;14.29;91.15;100699.91;3509644;39;102164;-41
2021/07/29 04:02:49;;;;;;;;;;;15.50;99.90;;;14.34;90.60;100708.28;3508120;39;103019;-40
2021/07/29 04:05:16;;;;;;;;;;;15.60;99.90;;;14.34;90.84;100702.81;3508419;40;102368;-40
2021/07/29 04:07:44;;;;;;;;;;;15.60;99.90;;;14.20;91.28;100689.31;3508874;40;103129;-41
2021/07/29 04:10:11;;;;;;;;;;;15.60;99.90;;;14.32;90.42;100710.41;3508479;40;102106;-40
2021/07/29 04:12:38;;;;;;;;;;;15.60;99.90;;;14.33;91.10;100712.94;3508375;40;103150;-41
2021/07/29 04:15:06;;;;;;;;;;;15.60;99.90;;;14.44;90.16;100702.16;3509126;39;102356;-40
2021/07/29 04:17:33;;;;;;;;;;;15.70;99.90;;;14.36;89.08;100714.38;3508407;40;102267;-40
2021/07/29 04:20:00;;;;;;;;;;;15.70;99.90;;;14.39;89.46;100716.63;3508441;40;102124;-41
2021/07/29 04:22:28;;;;;;;;;;;15.70;99.90;;;14.31;89.07;100708.75;3508807;39;103170;-40
2021/07/29 04:24:58;;;;;;;;;;;15.60;99.90;;;14.32;89.49;100715.91;3507653;40;102298;-40
2021/07/29 04:27:25;;;;;;;;;;;15.60;99.90;;;14.37;88.82;100719.59;3508335;40;103954;-40
2021/07/29 04:29:53;;;;;;;;;;;15.60;99.90;;;14.34;88.49;100725.59;3507970;40;103076;-40
2021/07/29 04:32:20;;;;;;;;;;;15.60;99.90;;;14.41;88.32;100735.59;3509020;39;103114;-41
2021/07/29 04:34:51;;;;;;;;;;;15.70;99.90;;;14.41;87.66;100724.59;3508722;40;102171;-40
2021/07/29 04:37:18;;;;;;;;;;;15.70;99.90;;;14.49;88.45;100738.81;3507926;40;103133;-41
2021/07/29 04:39:45;;;;;;;;;;;15.70;99.90;;;14.57;86.21;100739.50;3508029;40;102289;-41
2021/07/29 04:42:12;;;;;;;;;;;15.80;99.90;;;14.61;86.03;100736.03;3508022;40;104119;-40
2021/07/29 04:44:40;;;;;;;;;;;15.80;99.90;;;14.61;87.02;100735.22;3508846;39;102444;-41
2021/07/29 04:47:07;;;;;;;;;;;15.90;99.90;;;14.63;86.62;100744.03;3509241;39;102809;-41
2021/07/29 04:49:34;;;;;;;;;;;15.90;99.90;;;14.68;85.76;100735.91;3509134;39;102187;-42
2021/07/29 04:52:03;;;;;;;;;;;15.90;99.90;;;14.71;84.52;100740.94;3508783;39;102376;-40
2021/07/29 04:54:30;;;;;;;;;;;15.90;99.90;;;14.68;85.19;100744.97;3508874;39;102453;-42
2021/07/29 04:56:57;;;;;;;;;;;15.90;99.90;;;14.67;85.32;100745.22;3507931;40;102235;-40
2021/07/29 04:59:25;;;;;;;;;;;15.90;99.90;;;14.67;85.18;100747.97;3507970;40;102946;-43
2021/07/29 05:01:52;;;;;;;;;;;15.90;99.90;;;14.55;85.19;100727.94;3508178;39;103195;-41
2021/07/29 05:04:19;;;;;;;;;;;15.90;99.90;;;14.66;86.53;100738.06;3508735;39;102316;-41
2021/07/29 05:06:47;;;;;;;;;;;15.90;99.90;;;14.72;85.14;100742.63;3508457;40;102267;-40
2021/07/29 05:09:14;;;;;;;;;;;15.90;99.90;;;14.81;83.91;100749.38;3508127;40;102191;-40
2021/07/29 05:11:41;;;;;;;;;;;16.00;99.90;;;14.82;84.09;100747.50;3508286;40;102256;-42
2021/07/29 05:14:08;;;;;;;;;;;16.00;99.90;;;14.82;83.64;100745.56;3508613;39;102423;-40
2021/07/29 05:16:36;;;;;;;;;;;16.10;99.90;;;14.91;82.86;100758.94;3508693;39;102153;-41
2021/07/29 05:19:03;;;;;;;;;;;16.10;99.90;;;14.94;82.76;100761.19;3508627;39;102287;-40
2021/07/29 05:21:30;;;;;;;;;;;16.20;99.90;;;14.98;82.55;100756.88;3508665;39;102720;-41
2021/07/29 05:23:58;;;;;;;;;;;16.20;99.90;;;15.04;81.36;100758.66;3508350;39;102463;-41
2021/07/29 05:26:25;;;;;;;;;;;16.20;99.90;;;15.07;81.80;100754.59;3508355;39;103152;-41
2021/07/29 05:28:53;;;;;;;;;;;16.30;99.90;;;15.10;81.53;100757.66;3508150;40;102180;-41
2021/07/29 05:31:21;;;;;;;;;;;16.30;99.90;;;15.15;82.17;100756.94;3507928;40;102093;-42
2021/07/29 05:33:49;;;;;;;;;;;16.30;99.90;;;15.23;80.89;100758.47;3508857;39;102405;-41
2021/07/29 05:36:16;;;;;;;;;;;16.40;99.90;;;15.34;79.62;100748.50;3508302;40;103136;-40
2021/07/29 05:38:43;;;;;;;;;;;16.50;99.90;;;15.43;80.97;100757.19;3509164;40;102972;-40
2021/07/29 05:41:11;;;;;;;;;;;16.50;99.90;;;15.55;79.51;100768.94;3510336;39;103171;-42
2021/07/29 05:43:39;;;;;;;;;;;16.60;99.90;;;15.72;79.82;100768.16;3508986;40;102294;-41
2021/07/29 05:46:10;;;;;;;;;;;16.80;99.90;;;15.93;78.99;100772.94;3509047;40;102065;-41
2021/07/29 05:48:38;;;;;;;;;;;17.00;99.90;;;15.98;77.32;100768.59;3509183;40;102173;-41
2021/07/29 05:51:06;;;;;;;;;;;17.10;99.90;;;15.93;78.12;100772.09;3510214;39;102754;-41
2021/07/29 05:53:34;;;;;;;;;;;17.10;99.90;;;15.93;76.78;100766.59;3508644;40;102340;-41
2021/07/29 05:56:01;;;;;;;;;;;17.10;99.90;;;15.94;77.74;100774.63;3509563;39;102240;-41
2021/07/29 05:58:29;;;;;;;;;;;17.10;99.90;;;16.03;78.64;100771.44;3509322;40;102295;-40
2021/07/29 06:00:57;;;;;;;;;;;17.10;99.90;;;16.18;78.21;100768.94;3508888;40;102221;-41
2021/07/29 06:03:24;;;;;;;;;;;17.20;99.90;;;16.31;76.17;100777.91;3508881;40;102407;-40
2021/07/29 06:05:55;;;;;;;;;;;17.40;99.90;;;16.21;76.13;100773.09;3509730;39;102440;-42
2021/07/29 06:08:23;;;;;;;;;;;17.40;99.90;;;16.22;76.48;100774.75;3509692;39;102349;-41
2021/07/29 06:10:50;;;;;;;;;;;17.40;99.90;;;16.17;76.62;100780.19;3508839;40;102269;-41
2021/07/29 06:13:18;;;;;;;;;;;17.40;99.90;;;16.14;78.00;100778.75;3508999;40;102380;-41
2021/07/29 06:15:46;;;;;;;;;;;17.30;99.90;;;16.21;76.67;100782.19;3509528;39;102235;-41
2021/07/29 06:18:13;;;;;;;;;;;17.40;99.90;;;16.24;74.66;100781.69;3509338;40;102380;-41
2021/07/29 06:20:41;;;;;;;;;;;17.40;99.90;;;16.38;74.72;100786.81;3509333;39;102246;-42
2021/07/29 06:23:08;;;;;;;;;;;17.50;99.90;;;16.65;73.74;100788.84;3509699;39;102354;-41
2021/07/29 06:25:39;;;;;;;;;;;17.60;99.90;;;16.78;73.93;100784.91;3509485;39;103260;-40
2021/07/29 06:28:13;;;;;;;;;;;17.70;99.90;;;16.81;75.39;100781.63;3509802;39;102319;-41
2021/07/29 06:30:43;;;;;;;;;;;17.80;99.90;;;16.81;72.18;100782.47;3509827;39;103231;-41
2021/07/29 06:33:11;;;;;;;;;;;17.90;99.90;;;17.03;72.83;100781.69;3509119;40;102193;-41
2021/07/29 06:35:38;;;;;;;;;;;18.10;99.90;;;16.96;73.01;100787.34;3509501;39;103481;-41
2021/07/29 06:38:05;;;;;;;;;;;18.10;99.90;;;16.78;73.10;100788.50;3508582;40;102818;-41
2021/07/29 06:40:32;;;;;;;;;;;17.90;99.90;;;16.78;73.57;100788.50;3509636;39;103151;-41
2021/07/29 06:43:00;;;;;;;;;;;17.90;99.90;;;17.00;73.23;100784.97;3508959;39;102459;-41
2021/07/29 06:45:27;;;;;;;;;;;18.00;99.90;;;17.15;70.48;100791.72;3509515;39;103119;-41
2021/07/29 06:47:54;;;;;;;;;;;18.20;99.90;;;17.27;71.12;100795.19;3508654;40;102162;-41
2021/07/29 06:50:22;;;;;;;;;;;18.30;99.90;;;17.37;70.43;100794.44;3509430;39;102376;-42
2021/07/29 06:52:49;;;;;;;;;;;18.30;99.90;;;17.49;72.06;100797.91;3509586;39;102382;-41
2021/07/29 06:55:16;;;;;;;;;;;18.50;99.90;;;17.65;69.20;100800.84;3509337;39;102190;-41
2021/07/29 06:57:43;;;;;;;;;;;18.60;99.90;;;17.85;69.26;100805.69;3509740;39;102369;-41
2021/07/29 07:00:11;;;;;;;;;;;18.80;99.90;;;18.01;67.86;100812.22;3510724;39;102245;-41
2021/07/29 07:02:38;;;;;;;;;;;18.90;99.90;;;18.20;68.05;100809.88;3509012;40;102230;-40
2021/07/29 07:05:06;;;;;;;;;;;19.10;99.90;;;18.11;65.02;100814.22;3509075;40;103200;-41
2021/07/29 07:07:34;;;;;;;;;;;19.10;99.90;;;18.16;65.26;100813.41;3508404;40;102132;-40
2021/07/29 07:10:01;;;;;;;;;;;19.20;99.90;;;18.27;66.11;100815.19;3508301;40;103155;-41
2021/07/29 07:12:29;;;;;;;;;;;19.30;99.90;;;18.19;64.23;100823.97;3509424;39;102396;-43
2021/07/29 07:14:56;;;;;;;;;;;19.30;99.90;;;17.96;64.69;100817.66;3509459;39;102296;-40
2021/07/29 07:17:23;;;;;;;;;;;19.10;99.90;;;17.83;66.57;100818.94;3509493;39;102167;-41
2021/07/29 07:19:56;;;;;;;;;;;19.00;99.90;;;17.92;67.41;100824.81;3509498;39;102269;-41
2021/07/29 07:22:24;;;;;;;;;;;19.00;99.90;;;17.98;65.34;100824.56;3508719;40;102741;-41
2021/07/29 07:24:52;;;;;;;;;;;19.00;99.90;;;18.00;64.91;100821.56;3508787;40;102310;-42
2021/07/29 07:27:19;;;;;;;;;;;19.10;99.90;;;17.75;62.64;100822.16;3509047;40;102753;-41
2021/07/29 07:29:46;;;;;;;;;;;19.00;99.90;;;17.59;64.62;100827.53;3509416;39;103339;-41
2021/07/29 07:32:14;;;;;;;;;;;18.80;99.90;;;17.52;65.08;100829.66;3508894;39;103078;-41
2021/07/29 07:34:44;;;;;;;;;;;18.70;99.90;;;17.75;66.47;100833.19;3509025;40;103141;-41
2021/07/29 07:37:12;;;;;;;;;;;18.80;99.90;;;17.83;64.35;100841.00;3508639;40;102960;-38
2021/07/29 07:39:39;;;;;;;;;;;18.90;99.90;;;17.61;64.27;100844.66;3509047;39;102218;-41
2021/07/29 07:42:06;;;;;;;;;;;18.80;99.90;;;17.60;65.43;100844.88;3509280;39;102434;-42
2021/07/29 07:44:34;;;;;;;;;;;18.80;99.90;;;17.44;64.45;100846.66;3508238;40;102348;-41
2021/07/29 07:47:01;;;;;;;;;;;18.60;99.90;;;17.46;63.85;100855.50;3508766;40;102463;-41
2021/07/29 07:49:28;;;;;;;;;;;18.60;99.90;;;17.33;65.11;100848.44;3508811;40;102364;-41
2021/07/29 07:51:56;;;;;;;;;;;18.60;99.90;;;17.30;65.18;100849.81;3509295;39;102371;-41
2021/07/29 07:54:23;;;;;;;;;;;18.50;99.90;;;17.46;63.71;100852.72;3508353;40;102341;-41
2021/07/29 07:56:50;;;;;;;;;;;18.50;99.90;;;17.83;63.18;100841.81;3508216;40;102446;-41
2021/07/29 07:59:18;;;;;;;;;;;18.80;99.90;;;18.06;62.55;100848.13;3509388;39;102673;-41
2021/07/29 08:01:45;;;;;;;;;;;19.00;99.90;;;18.14;62.39;100845.97;3636531;22;104048;-39
2021/07/29 08:04:12;;;;;;;;;;;19.10;99.90;;;18.07;64.24;100851.75;3504140;39;103140;-39
2021/07/29 08:06:40;;;;;;;;;;;19.20;99.90;;;17.93;63.68;100851.31;3508445;39;102403;-39
2021/07/29 08:09:07;;;;;;;;;;;19.10;99.90;;;17.73;64.04;100854.69;3509571;39;103272;-39
2021/07/29 08:11:34;;;;;;;;;;;19.00;99.90;;;17.60;63.03;100851.25;3508479;40;102092;-38
2021/07/29 08:14:02;;;;;;;;;;;18.90;99.90;;;17.73;62.84;100851.91;3508197;40;102241;-39
2021/07/29 08:16:29;;;;;;;;;;;18.90;99.90;;;17.96;64.58;100837.81;3508764;40;102401;-39
2021/07/29 08:18:57;;;;;;;;;;;19.00;99.90;;;18.22;61.49;100851.03;3508592;39;102458;-39
2021/07/29 08:21:24;;;;;;;;;;;19.10;99.90;;;18.52;62.80;100852.38;3508589;39;102946;-39
2021/07/29 08:23:51;;;;;;;;;;;19.40;99.90;;;18.78;62.79;100835.97;3508406;40;104094;-43
2021/07/29 08:26:19;;;;;;;;;;;19.50;99.90;;;19.02;61.25;100844.66;3508719;39;102830;-39
2021/07/29 08:28:46;;;;;;;;;;;19.80;99.90;;;19.11;59.36;100843.06;3509515;39;102272;-39
2021/07/29 08:31:14;;;;;;;;;;;20.00;99.90;;;19.15;59.29;100842.53;3508660;40;102159;-39
2021/07/29 08:33:42;;;;;;;;;;;20.10;99.90;;;19.27;58.62;100829.28;3508644;39;104005;-39
2021/07/29 08:36:16;;;;;;;;;;;20.20;99.90;;;18.92;57.30;100844.59;3509161;39;102237;-39
2021/07/29 08:38:45;;;;;;;;;;;20.00;99.90;;;18.95;58.61;100839.34;3508273;40;102978;-38
2021/07/29 08:41:15;;;;;;;;;;;20.00;99.90;;;18.90;55.09;100838.50;3508817;40;102383;-39
2021/07/29 08:43:42;;;;;;;;;;;20.00;99.90;;;19.18;59.59;100842.81;3508466;40;103240;-39
2021/07/29 08:46:13;;;;;;;;;;;20.10;99.90;;;19.50;56.36;100827.16;3508293;39;102693;-39
2021/07/29 08:48:45;;;;;;;;;;;20.30;99.90;;;19.68;56.85;100840.50;3508900;39;103122;-39
2021/07/29 08:51:22;;;;;;;;;;;20.50;99.90;;;19.92;57.14;100839.16;3509349;39;102209;-39
2021/07/29 08:53:50;;;;;;;;;;;20.80;99.90;;;19.96;55.84;100841.09;3508964;39;102467;-39
2021/07/29 08:56:24;;;;;;;;;;;20.80;99.90;;;20.02;56.26;100852.19;3508899;39;102727;-40
2021/07/29 08:58:53;;;;;;;;;;;20.90;99.90;;;20.20;55.43;100842.50;3508035;39;102423;-39
2021/07/29 09:01:20;;;;;;;;;;;21.00;99.90;;;20.07;53.52;100836.41;3508363;39;102388;-39
2021/07/29 09:03:52;;;;;;;;;;;21.10;99.90;;;20.03;52.53;100848.31;3508137;40;102222;-39
2021/07/29 09:06:23;;;;;;;;;;;21.00;99.90;;;20.35;53.51;100848.03;3507957;39;102276;-39
2021/07/29 09:08:56;;;;;;;;;;;21.20;99.90;;;20.65;51.68;100838.00;3508653;40;102431;-40
2021/07/29 09:11:37;;;;;;;;;;;21.40;99.90;;;20.58;50.61;100842.19;3508575;39;102519;-40
2021/07/29 09:14:14;;;;;;;;;;;21.50;99.90;;;20.29;50.76;100837.22;3508411;39;103116;-39
2021/07/29 09:17:03;;;;;;;;;;;21.40;99.90;;;20.30;52.29;100848.03;3508269;39;102436;-40
2021/07/29 09:19:44;;;;;;;;;;;21.40;99.90;;;20.14;53.66;100849.97;3508591;40;104183;-39
2021/07/29 09:22:15;;;;;;;;;;;21.20;99.90;;;20.26;56.20;100845.00;3508586;39;102405;-39
2021/07/29 09:25:05;;;;;;;;;;;21.30;99.90;;;20.39;52.34;100843.59;3507792;40;102728;-39
2021/07/29 09:27:38;;;;;;;;;;;21.30;99.90;;;20.62;53.44;100846.06;3508133;40;102392;-39
2021/07/29 09:30:18;;;;;;;;;;;21.50;99.90;;;20.67;50.71;100849.66;3509170;39;103299;-39
2021/07/29 09:33:05;;;;;;;;;;;21.60;99.90;;;20.72;52.91;100840.50;3508430;39;102278;-39
2021/07/29 09:35:35;;;;;;;;;;;21.70;99.90;;;20.79;49.68;100846.59;3508284;39;102338;-40
2021/07/29 09:38:09;;;;;;;;;;;21.70;99.90;;;20.50;50.05;100844.41;3507866;40;102428;-40
2021/07/29 09:40:51;;;;;;;;;;;21.60;99.90;;;20.40;51.25;100849.94;3507821;40;103039;-39
2021/07/29 09:43:30;;;;;;;;;;;21.50;99.90;;;20.39;51.14;100851.06;3507825;40;102317;-40
2021/07/29 09:46:00;;;;;;;;;;;21.40;99.90;;;20.29;51.83;100853.84;3508334;39;103153;-39
2021/07/29 09:48:28;;;;;;;;;;;21.40;99.90;;;19.90;49.80;100849.66;3507592;39;102399;-39
2021/07/29 09:50:59;;;;;;;;;;;21.20;99.90;;;20.02;50.59;100850.22;3508406;39;102238;-38
2021/07/29 09:53:35;;;;;;;;;;;21.10;99.90;;;19.98;51.72;100855.50;3507735;40;102185;-39
2021/07/29 09:56:13;;;;;;;;;;;21.00;99.90;;;20.17;52.55;100863.28;3508285;39;102325;-39
2021/07/29 09:59:03;;;;;;;;;;;21.10;99.90;;;20.30;55.74;100861.06;3508043;39;102530;-37
2021/07/29 10:01:31;;;;;;;;;;;21.20;99.90;;;20.47;52.14;100847.75;3507955;40;103314;-39
2021/07/29 10:04:01;;;;;;;;;;;21.40;99.90;;;20.87;55.21;100847.13;3508722;39;102452;-38
2021/07/29 10:06:33;;;;;;;;;;;21.60;99.90;;;21.21;54.47;100857.53;3508743;39;103091;-39
2021/07/29 10:09:07;;;;;;;;;;;21.90;99.90;;;21.49;51.95;100858.81;3508683;39;102273;-38
2021/07/29 10:11:38;;;;;;;;;;;22.20;99.90;;;21.37;49.69;100856.38;3507539;40;103505;-39
2021/07/29 10:14:05;;;;;;;;;;;22.30;99.90;;;21.26;49.85;100857.53;3507854;40;102882;-39
2021/07/29 10:16:49;;;;;;;;;;;22.30;99.90;;;20.96;48.96;100853.78;3507620;39;102134;-39
2021/07/29 10:19:17;;;;;;;;;;;22.20;99.90;;;21.27;52.04;100860.03;3507420;40;102181;-39
2021/07/29 10:21:45;;;;;;;;;;;22.20;99.90;;;21.47;52.36;100851.88;3507882;39;102294;-38
2021/07/29 10:24:13;;;;;;;;;;;22.30;99.90;;;21.18;49.99;100858.13;3508724;40;102188;-39
2021/07/29 10:26:59;;;;;;;;;;;22.20;99.90;;;21.03;47.27;100859.00;3509685;39;103212;-39
2021/07/29 10:29:30;;;;;;;;;;;22.10;99.80;;;21.07;49.69;100849.00;3509261;39;102243;-39
2021/07/29 10:32:02;;;;;;;;;;;22.10;99.90;;;21.16;50.15;100852.03;3508770;40;103329;-40
2021/07/29 10:34:32;;;;;;;;;;;22.10;99.90;;;21.02;49.63;100849.88;3509046;40;102959;-39
2021/07/29 10:37:03;;;;;;;;;;;22.10;99.80;;;21.11;46.45;100855.66;3509582;39;103185;-39
2021/07/29 10:39:31;;;;;;;;;;;22.10;97.80;;;21.32;47.40;100861.94;3509067;40;102258;-39
2021/07/29 10:42:00;;;;;;;;;;;22.20;98.70;;;21.50;47.05;100837.47;3508781;40;103891;-39
2021/07/29 10:44:36;;;;;;;;;;;22.40;98.40;;;21.84;52.66;100843.06;3508723;40;102317;-39
2021/07/29 10:47:07;;;;;;;;;;;22.60;99.90;;;22.09;48.10;100845.97;3509334;39;104204;-39
2021/07/29 10:49:44;;;;;;;;;;;22.90;99.50;;;22.11;49.81;100860.41;3509693;39;102415;-40
2021/07/29 10:52:12;;;;;;;;;;;23.00;99.90;;;22.41;47.96;100861.25;3509766;39;103232;-38
2021/07/29 10:54:41;;;;;;;;;;;23.20;99.00;;;22.37;44.44;100851.84;3508963;39;102064;-39
2021/07/29 10:57:11;;;;;;;;;;;23.30;95.90;;;22.43;45.64;100847.88;3509651;39;102361;-40
2021/07/29 10:59:39;;;;;;;;;;;23.30;96.70;;;22.57;47.08;100853.63;3509120;40;102441;-39
2021/07/29 11:02:11;;;;;;;;;;;23.40;98.20;;;22.63;46.53;100851.63;3509609;39;102808;-39
2021/07/29 11:04:59;;;;;;;;;;;23.50;97.70;;;22.32;46.33;100849.13;3508923;40;102133;-39
2021/07/29 11:07:27;;;;;;;;;;;23.40;96.60;;;22.23;47.64;100838.59;3508696;40;102310;-39
2021/07/29 11:10:07;;;;;;;;;;;23.30;97.60;;;22.46;45.53;100854.81;3508821;39;102305;-39
2021/07/29 11:12:35;;;;;;;;;;;23.40;95.90;;;22.32;44.41;100840.78;3509452;39;103221;-39